TimeMST,TemperatureF,Dew PointF,Humidity,Sea Level PressureIn,VisibilityMPH,Wind Direction,Wind SpeedMPH,Gust SpeedMPH,PrecipitationIn,Events,Conditions,WindDirDegrees,DateUTC
12:14 AM,10.4,3.2,73,30.39,10.0,ESE,5.8,-,N/A,,Clear,120,2013-12-27 07:14:00
12:33 AM,10.4,3.2,73,30.39,10.0,SE,4.6,-,N/A,,Clear,140,2013-12-27 07:33:00
12:55 AM,10.4,3.2,73,30.39,10.0,SSE,5.8,-,N/A,,Clear,150,2013-12-27 07:55:00
1:15 AM,10.4,3.2,73,30.38,10.0,SSE,4.6,-,N/A,,Clear,160,2013-12-27 08:15:00
1:35 AM,10.4,3.2,73,30.38,10.0,SSE,3.5,-,N/A,,Clear,160,2013-12-27 08:35:00
1:55 AM,10.4,3.2,73,30.38,10.0,SE,4.6,-,N/A,,Clear,140,2013-12-27 08:55:00
2:15 AM,8.6,1.4,73,30.39,10.0,SE,4.6,-,N/A,,Clear,130,2013-12-27 09:15:00
2:35 AM,8.6,1.4,73,30.39,10.0,SE,5.8,-,N/A,,Clear,130,2013-12-27 09:35:00
2:55 AM,6.8,1.4,79,30.39,10.0,SE,6.9,-,N/A,,Clear,130,2013-12-27 09:55:00
3:15 AM,8.6,1.4,73,30.40,10.0,SE,6.9,-,N/A,,Clear,130,2013-12-27 10:15:00
3:35 AM,8.6,1.4,73,30.39,10.0,SE,9.2,-,N/A,,Clear,140,2013-12-27 10:35:00
3:55 AM,10.4,3.2,73,30.39,10.0,SE,6.9,-,N/A,,Clear,130,2013-12-27 10:55:00
4:14 AM,10.4,3.2,73,30.39,10.0,SE,5.8,-,N/A,,Clear,140,2013-12-27 11:14:00
4:35 AM,10.4,3.2,73,30.39,10.0,ESE,6.9,-,N/A,,Clear,120,2013-12-27 11:35:00
4:55 AM,10.4,3.2,73,30.39,10.0,ESE,8.1,-,N/A,,Clear,120,2013-12-27 11:55:00
5:14 AM,10.4,3.2,73,30.39,10.0,SE,8.1,-,N/A,,Clear,130,2013-12-27 12:14:00
5:35 AM,10.4,3.2,73,30.39,10.0,SE,5.8,-,N/A,,Clear,130,2013-12-27 12:35:00
5:55 AM,10.4,3.2,73,30.39,10.0,ESE,5.8,-,N/A,,Clear,120,2013-12-27 12:55:00
6:15 AM,10.4,5.0,79,30.40,10.0,South,3.5,-,N/A,,Clear,180,2013-12-27 13:15:00
6:35 AM,10.4,5.0,79,30.40,10.0,SE,5.8,-,N/A,,Clear,130,2013-12-27 13:35:00
6:54 AM,8.6,3.2,79,30.40,10.0,Calm,Calm,-,N/A,,Clear,0,2013-12-27 13:54:00
7:15 AM,3.2,-0.4,85,30.40,10.0,Calm,Calm,-,N/A,,Clear,0,2013-12-27 14:15:00
7:35 AM,6.8,3.2,85,30.41,10.0,Calm,Calm,-,N/A,,Clear,0,2013-12-27 14:35:00
7:55 AM,6.8,1.4,79,30.41,10.0,SE,4.6,-,N/A,,Clear,130,2013-12-27 14:55:00
8:15 AM,3.2,-2.2,78,30.42,10.0,Calm,Calm,-,N/A,,Clear,0,2013-12-27 15:15:00
8:35 AM,8.6,1.4,73,30.42,10.0,Calm,Calm,-,N/A,,Clear,0,2013-12-27 15:35:00
8:55 AM,10.4,3.2,73,30.43,10.0,Calm,Calm,-,N/A,,Clear,0,2013-12-27 15:55:00
9:15 AM,10.4,3.2,73,30.44,10.0,Calm,Calm,-,N/A,,Clear,0,2013-12-27 16:15:00
9:35 AM,12.2,3.2,67,30.44,10.0,ESE,4.6,-,N/A,,Clear,110,2013-12-27 16:35:00
9:55 AM,14.0,5.0,67,30.44,10.0,ESE,4.6,-,N/A,,Clear,120,2013-12-27 16:55:00
10:15 AM,17.6,8.6,68,30.44,10.0,Calm,Calm,-,N/A,,Clear,0,2013-12-27 17:15:00
10:35 AM,19.4,8.6,63,30.43,10.0,Calm,Calm,-,N/A,,Clear,0,2013-12-27 17:35:00
10:55 AM,17.6,8.6,68,30.43,10.0,NW,3.5,-,N/A,,Clear,320,2013-12-27 17:55:00
11:14 AM,19.4,8.6,63,30.42,10.0,Calm,Calm,-,N/A,,Clear,0,2013-12-27 18:14:00
11:35 AM,21.2,10.4,63,30.41,10.0,Calm,Calm,-,N/A,,Clear,0,2013-12-27 18:35:00
11:55 AM,24.8,12.2,59,30.39,10.0,Calm,Calm,-,N/A,,Clear,0,2013-12-27 18:55:00
12:15 PM,23.0,12.2,63,30.38,10.0,Calm,Calm,-,N/A,,Clear,0,2013-12-27 19:15:00
12:34 PM,23.0,12.2,63,30.37,10.0,Calm,Calm,-,N/A,,Clear,0,2013-12-27 19:34:00
12:55 PM,24.8,12.2,59,30.37,10.0,Calm,Calm,-,N/A,,Clear,0,2013-12-27 19:55:00
1:15 PM,24.8,12.2,59,30.36,10.0,Calm,Calm,-,N/A,,Clear,0,2013-12-27 20:15:00
1:35 PM,24.8,12.2,59,30.35,10.0,Calm,Calm,-,N/A,,Clear,0,2013-12-27 20:35:00
1:55 PM,24.8,12.2,59,30.35,10.0,Calm,Calm,-,N/A,,Clear,0,2013-12-27 20:55:00
2:15 PM,24.8,12.2,59,30.34,10.0,Calm,Calm,-,N/A,,Clear,0,2013-12-27 21:15:00
2:35 PM,24.8,14.0,64,30.34,10.0,NW,3.5,-,N/A,,Clear,320,2013-12-27 21:35:00
2:54 PM,23.0,12.2,63,30.33,10.0,NW,4.6,-,N/A,,Clear,310,2013-12-27 21:54:00
3:14 PM,23.0,12.2,63,30.32,10.0,Calm,Calm,-,N/A,,Clear,0,2013-12-27 22:14:00
3:34 PM,24.8,12.2,59,30.32,10.0,West,3.5,-,N/A,,Clear,280,2013-12-27 22:34:00
3:55 PM,23.0,12.2,63,30.32,10.0,Calm,Calm,-,N/A,,Clear,0,2013-12-27 22:55:00
4:14 PM,23.0,12.2,63,30.31,10.0,Calm,Calm,-,N/A,,Clear,0,2013-12-27 23:14:00
4:35 PM,23.0,12.2,63,30.31,10.0,Calm,Calm,-,N/A,,Clear,0,2013-12-27 23:35:00
4:55 PM,21.2,12.2,68,30.31,10.0,Calm,Calm,-,N/A,,Clear,0,2013-12-27 23:55:00
5:15 PM,21.2,12.2,68,30.30,10.0,Calm,Calm,-,N/A,,Clear,0,2013-12-28 00:15:00
5:35 PM,17.6,10.4,73,30.30,10.0,ESE,8.1,-,N/A,,Clear,120,2013-12-28 00:35:00
5:55 PM,15.8,8.6,73,30.29,10.0,ESE,6.9,-,N/A,,Clear,120,2013-12-28 00:55:00
6:15 PM,15.8,10.4,79,30.29,10.0,SE,5.8,-,N/A,,Clear,130,2013-12-28 01:15:00
6:34 PM,17.6,10.4,73,30.29,10.0,SSE,6.9,-,N/A,,Clear,150,2013-12-28 01:34:00
6:54 PM,17.6,10.4,73,30.29,10.0,SE,8.1,-,N/A,,Clear,140,2013-12-28 01:54:00
7:14 PM,12.2,6.8,79,30.28,10.0,SE,6.9,-,N/A,,Clear,140,2013-12-28 02:14:00
7:34 PM,12.2,6.8,79,30.27,10.0,SE,9.2,-,N/A,,Clear,130,2013-12-28 02:34:00
7:54 PM,12.2,6.8,79,30.27,10.0,SE,6.9,-,N/A,,Clear,140,2013-12-28 02:54:00
8:15 PM,12.2,6.8,79,30.26,10.0,SE,6.9,-,N/A,,Clear,140,2013-12-28 03:15:00
8:34 PM,12.2,8.6,85,30.25,10.0,SE,8.1,-,N/A,,Clear,140,2013-12-28 03:34:00
8:55 PM,12.2,6.8,79,30.25,10.0,ESE,9.2,-,N/A,,Clear,120,2013-12-28 03:55:00
9:15 PM,12.2,8.6,85,30.25,10.0,ESE,6.9,-,N/A,,Clear,120,2013-12-28 04:15:00
9:35 PM,14.0,10.4,86,30.24,10.0,South,5.8,-,N/A,,Clear,180,2013-12-28 04:35:00
9:55 PM,12.2,6.8,79,30.23,10.0,Calm,Calm,-,N/A,,Clear,0,2013-12-28 04:55:00
10:15 PM,12.2,8.6,85,30.23,10.0,SSE,5.8,-,N/A,,Clear,160,2013-12-28 05:15:00
10:35 PM,10.4,5.0,79,30.23,10.0,SE,5.8,-,N/A,,Clear,130,2013-12-28 05:35:00
10:55 PM,10.4,5.0,79,30.22,10.0,SE,8.1,-,N/A,,Clear,130,2013-12-28 05:55:00
11:15 PM,10.4,5.0,79,30.21,10.0,ESE,5.8,-,N/A,,Clear,120,2013-12-28 06:15:00
11:35 PM,10.4,5.0,79,30.21,10.0,SE,6.9,-,N/A,,Clear,130,2013-12-28 06:35:00
11:55 PM,10.4,5.0,79,30.20,10.0,ESE,6.9,-,N/A,,Clear,120,2013-12-28 06:55:00